Meteorología y climatología de Navarra
Datos de la estación - Meteo Navarra

Estación de Yesa GN

Altitud 487 m.


Datos desde el 30/06/2020 hasta el 01/07/2020 en horario solar
Los datos son PROVISIONALES

Anterior Página 1 de 1 Siguiente Descargar: Formato para Excel 2000 o superior   Formato csv   Formato para OpenOffice Calc
Fecha Temperatura Humedad relativa Radiación global Insolación Precipitación Vel. viento 10 m Vel. viento 10 m Dir. viento 10 m
ºC % W/m² s l/m² m/s km/h º
30/06/2020 0:00 16.6 84 0.0 0 0.0 1.5 5.2 305
30/06/2020 0:10 16.3 85 0.0 0 0.0 1.1 4.0 289
30/06/2020 0:20 15.9 87 0.0 0 0.0 1.5 5.2 312
30/06/2020 0:30 16.1 87 0.0 0 0.0 1.4 5.1 311
30/06/2020 0:40 15.8 87 0.0 0 0.0 1.0 3.6 291
30/06/2020 0:50 15.4 88 0.0 0 0.0 1.3 4.8 305
30/06/2020 1:00 15.4 89 0.0 0 0.0 1.2 4.3 305
30/06/2020 1:10 15.3 89 0.0 0 0.0 1.1 3.9 291
30/06/2020 1:20 15.1 89 0.0 0 0.0 0.9 3.4 287
30/06/2020 1:30 15.0 90 0.0 0 0.0 1.1 3.9 291
30/06/2020 1:40 14.8 91 0.0 0 0.0 1.5 5.5 306
30/06/2020 1:50 14.7 92 0.0 0 0.0 1.4 5.1 312
30/06/2020 2:00 14.6 92 0.0 0 0.0 1.3 4.6 309
30/06/2020 2:10 14.8 92 0.0 0 0.0 1.3 4.7 306
30/06/2020 2:20 14.8 92 0.0 0 0.0 1.5 5.4 319
30/06/2020 2:30 14.7 92 0.0 0 0.0 1.1 3.9 298
30/06/2020 2:40 14.7 92 0.0 0 0.0 0.6 2.2 288
30/06/2020 2:50 14.4 92 0.0 0 0.0 0.5 1.8 300
30/06/2020 3:00 14.5 91 0.0 0 0.0 0.6 2.2 288
30/06/2020 3:10 14.7 91 0.0 0 0.0 0.4 1.6 292
30/06/2020 3:20 14.3 92 0.0 0 0.0 0.2 0.8 241
30/06/2020 3:30 14.0 93 0.0 0 0.0 0.1 0.3 207
30/06/2020 3:40 13.9 94 0.0 0 0.0 0.4 1.6 274
30/06/2020 3:50 13.7 94 0.0 0 0.0 1.8 6.4 314
30/06/2020 4:00 13.8 94 0.0 0 0.0 1.4 5.0 307
30/06/2020 4:10 14.0 93 0.0 0 0.0 0.6 2.2 272
30/06/2020 4:20 13.9 93 0.0 0 0.0 1.4 4.9 292
30/06/2020 4:30 13.8 94 0.0 0 0.0 0.8 2.8 280
30/06/2020 4:40 13.8 95 0.0 0 0.0 0.5 1.7 278
30/06/2020 4:50 13.8 95 0.0 0 0.0 0.6 2.2 267
30/06/2020 5:00 13.7 95 7.7 0 0.0 1.0 3.7 296
30/06/2020 5:10 13.8 95 20.9 0 0.0 1.8 6.3 307
30/06/2020 5:20 14.4 93 27.0 0 0.0 1.1 3.8 290
30/06/2020 5:30 14.4 92 45.3 82 0.0 0.2 0.6 236
30/06/2020 5:40 14.3 94 109.5 600 0.0 0.0 0.0 263
30/06/2020 5:50 14.9 93 138.0 600 0.0 0.0 0.0 0
30/06/2020 6:00 15.5 91 165.3 600 0.0 0.6 2.1 335
30/06/2020 6:10 16.0 89 193.2 600 0.0 0.4 1.3 326
30/06/2020 6:20 16.6 86 222.7 600 0.0 0.5 1.8 219
30/06/2020 6:30 17.0 85 253.0 600 0.0 0.5 1.9 284
30/06/2020 6:40 17.4 83 282.9 600 0.0 0.6 2.0 318
30/06/2020 6:50 17.9 81 309.7 600 0.0 0.8 2.9 307
30/06/2020 7:00 18.1 80 343.5 600 0.0 0.9 3.3 302
30/06/2020 7:10 18.4 80 373.6 600 0.0 0.6 2.2 321
30/06/2020 7:20 19.0 78 414.0 600 0.0 0.7 2.4 167
30/06/2020 7:30 19.4 76 394.9 508 0.0 0.8 2.7 172
30/06/2020 7:40 19.5 75 152.8 0 0.0 0.5 1.8 160
30/06/2020 7:50 19.4 77 183.8 0 0.0 0.4 1.4 166
30/06/2020 8:00 19.8 77 223.1 0 0.0 0.5 1.7 171
30/06/2020 8:10 19.9 75 375.8 164 0.0 0.8 2.8 159
30/06/2020 8:20 20.6 73 636.8 486 0.0 0.9 3.3 149
30/06/2020 8:30 21.1 72 330.0 0 0.0 0.7 2.5 101
30/06/2020 8:40 21.2 73 348.5 0 0.0 0.6 2.2 303
30/06/2020 8:50 21.7 72 384.2 280 0.0 1.2 4.2 196
30/06/2020 9:00 22.1 71 392.2 254 0.0 0.7 2.5 219
30/06/2020 9:10 22.3 70 513.4 600 0.0 0.7 2.4 306
30/06/2020 9:20 22.9 69 642.4 600 0.0 0.5 1.9 268
30/06/2020 9:30 23.6 68 758.4 600 0.0 1.2 4.2 192
30/06/2020 9:40 24.5 67 803.0 600 0.0 1.0 3.7 216
30/06/2020 9:50 25.1 66 815.0 600 0.0 1.3 4.6 188
30/06/2020 10:00 25.7 65 832.0 600 0.0 0.9 3.4 200
30/06/2020 10:10 26.0 64 846.0 600 0.0 0.9 3.2 180
30/06/2020 10:20 26.6 64 860.0 600 0.0 1.0 3.5 301
30/06/2020 10:30 26.8 64 873.0 600 0.0 1.2 4.3 36
30/06/2020 10:40 27.2 61 892.0 600 0.0 1.1 4.1 288
30/06/2020 10:50 27.2 61 904.0 600 0.0 1.4 5.2 141
30/06/2020 11:00 27.8 61 911.0 600 0.0 1.8 6.3 334
30/06/2020 11:10 27.8 60 944.0 600 0.0 1.7 6.0 329
30/06/2020 11:20 28.4 59 960.0 600 0.0 1.4 5.0 64
30/06/2020 11:30 29.1 57 877.0 526 0.0 1.1 4.1 141
30/06/2020 11:40 29.3 57 821.0 480 0.0 0.9 3.1 143
30/06/2020 11:50 29.8 55 874.0 508 0.0 1.0 3.5 158
30/06/2020 12:00 29.8 54 921.0 554 0.0 0.9 3.2 84
30/06/2020 12:10 30.1 54 951.0 600 0.0 0.9 3.1 187
30/06/2020 12:20 30.4 54 957.0 600 0.0 1.4 5.0 251
30/06/2020 12:30 30.9 53 955.0 600 0.0 1.6 5.6 221
30/06/2020 12:40 31.0 51 951.0 600 0.0 1.3 4.8 258
30/06/2020 12:50 30.8 50 940.0 600 0.0 0.8 3.0 275
30/06/2020 13:00 31.3 50 937.0 600 0.0 1.4 5.1 229
30/06/2020 13:10 31.5 49 928.0 600 0.0 1.0 3.7 243
30/06/2020 13:20 31.6 48 914.0 600 0.0 2.0 7.2 173
30/06/2020 13:30 31.2 52 928.0 600 0.0 1.5 5.3 260
30/06/2020 13:40 30.6 55 728.1 438 0.0 0.8 3.0 239
30/06/2020 13:50 31.2 49 912.0 600 0.0 1.2 4.5 183
30/06/2020 14:00 31.7 48 820.0 550 0.0 1.3 4.8 173
30/06/2020 14:10 32.0 46 870.0 600 0.0 1.3 4.8 134
30/06/2020 14:20 32.1 47 865.0 600 0.0 1.5 5.5 200
30/06/2020 14:30 32.2 47 472.2 258 0.0 1.0 3.7 292
30/06/2020 14:40 31.5 49 594.0 364 0.0 0.7 2.4 356
30/06/2020 14:50 32.5 47 803.0 600 0.0 0.8 2.9 112
30/06/2020 15:00 33.0 45 778.6 600 0.0 0.9 3.2 201
30/06/2020 15:10 33.1 43 652.8 470 0.0 1.0 3.5 226
30/06/2020 15:20 33.1 43 407.3 250 0.0 0.6 2.1 158
30/06/2020 15:30 32.9 44 600.8 600 0.0 0.6 2.2 187
30/06/2020 15:40 33.1 44 584.9 600 0.0 1.1 3.9 171
30/06/2020 15:50 33.0 45 347.1 240 0.0 1.4 4.9 152
30/06/2020 16:00 33.0 46 317.2 204 0.0 1.6 5.6 127
30/06/2020 16:10 32.7 46 177.7 0 0.0 1.9 6.8 116
30/06/2020 16:20 32.4 48 180.5 0 0.0 0.7 2.6 133
30/06/2020 16:30 32.4 47 159.9 0 0.0 0.6 2.1 139
30/06/2020 16:40 32.3 49 176.3 0 0.0 1.1 4.0 126
30/06/2020 16:50 32.1 48 218.4 0 0.0 1.4 5.1 144
30/06/2020 17:00 32.0 48 169.1 0 0.0 1.3 4.5 158
30/06/2020 17:10 31.8 50 122.9 0 0.0 0.8 2.9 194
30/06/2020 17:20 31.3 51 123.4 0 0.0 0.9 3.3 139
30/06/2020 17:30 31.2 49 115.4 0 0.0 1.2 4.5 190
30/06/2020 17:40 31.1 49 100.1 0 0.0 1.7 6.1 188
30/06/2020 17:50 31.0 50 77.8 0 0.0 2.1 7.7 183
30/06/2020 18:00 30.7 51 71.4 0 0.0 1.3 4.6 191
30/06/2020 18:10 30.6 51 57.5 0 0.0 0.6 2.3 226
30/06/2020 18:20 30.3 51 50.7 0 0.0 0.4 1.5 193
30/06/2020 18:30 30.3 53 41.1 0 0.0 0.4 1.4 148
30/06/2020 18:40 29.7 57 34.9 0 0.0 0.3 1.2 197
30/06/2020 18:50 28.7 59 28.1 0 0.0 0.8 2.7 298
30/06/2020 19:00 28.2 61 21.9 0 0.0 0.8 2.8 24
30/06/2020 19:10 27.5 65 17.4 0 0.0 0.8 3.0 282
30/06/2020 19:20 27.3 66 5.0 0 0.0 0.5 1.7 291
30/06/2020 19:30 26.8 66 0.0 0 0.0 0.5 1.7 298
30/06/2020 19:40 26.6 66 0.0 0 0.0 1.2 4.4 285
30/06/2020 19:50 26.1 68 0.0 0 0.0 0.7 2.5 335
30/06/2020 20:00 26.2 67 0.0 0 0.0 0.5 1.8 137
30/06/2020 20:10 25.8 67 0.0 0 0.0 1.2 4.2 117
30/06/2020 20:20 26.6 65 0.0 0 0.0 1.7 6.0 92
30/06/2020 20:30 26.5 63 0.0 0 0.0 1.5 5.5 47
30/06/2020 20:40 26.1 64 0.0 0 0.0 2.2 7.8 325
30/06/2020 20:50 25.7 65 0.0 0 0.0 2.1 7.5 344
30/06/2020 21:00 25.6 65 0.0 0 0.0 2.2 8.0 29
30/06/2020 21:10 26.2 63 0.0 0 0.0 1.8 6.5 120
30/06/2020 21:20 26.2 66 0.0 0 0.0 1.4 5.1 61
30/06/2020 21:30 25.8 65 0.0 0 0.0 1.8 6.4 357
30/06/2020 21:40 25.6 65 0.0 0 0.0 1.3 4.5 267
30/06/2020 21:50 25.5 66 0.0 0 0.0 1.2 4.2 268
30/06/2020 22:00 25.1 67 0.0 0 0.0 1.0 3.7 345
30/06/2020 22:10 25.3 67 0.0 0 0.0 0.5 1.8 18
30/06/2020 22:20 24.7 69 0.0 0 0.0 0.4 1.3 258
30/06/2020 22:30 24.4 71 0.0 0 0.0 0.6 2.3 27
30/06/2020 22:40 24.6 68 0.0 0 0.0 1.8 6.3 341
30/06/2020 22:50 24.7 69 0.0 0 0.0 0.9 3.2 45
30/06/2020 23:00 24.2 68 0.0 0 0.0 2.3 8.2 97
30/06/2020 23:10 25.3 62 0.0 0 0.0 2.4 8.8 83
30/06/2020 23:20 25.2 61 0.0 0 0.0 1.4 4.9 107
30/06/2020 23:30 25.2 64 0.0 0 0.0 0.8 3.0 60
30/06/2020 23:40 24.7 65 0.0 0 0.0 1.7 6.2 58
30/06/2020 23:50 24.9 64 0.0 0 0.0 0.9 3.2 62
Anterior Página 1 de 1 Siguiente

NOTA: Tipo de datos según el color:
   - Valores diarios o 10 minutos correctos
   - Valores diarios calculados a partir de un número de datos 10 minutos menor que 144 y mayor que 120, o de un número de datos semihorarios menor que 48 y mayor que 40 (caso de las estaciones de INTIA y del Ministerio)
   - Valores diez minutos estimados


Contacto        Enlaces        Aviso legal